createdAt,value
2019-03-09T00:02:25.018Z,6.30
2019-03-09T00:04:52.894Z,6.20
2019-03-09T00:07:20.563Z,6.10
2019-03-09T00:09:48.418Z,6.10
2019-03-09T00:12:19.159Z,6.10
2019-03-09T00:14:47.138Z,6.20
2019-03-09T00:17:14.730Z,6.20
2019-03-09T00:19:42.692Z,6.10
2019-03-09T00:22:10.423Z,6.00
2019-03-09T00:24:46.583Z,6.00
2019-03-09T00:27:45.636Z,5.90
2019-03-09T00:30:31.931Z,5.80
2019-03-09T00:32:59.515Z,5.80
2019-03-09T00:35:27.038Z,5.80
2019-03-09T00:37:54.743Z,5.90
2019-03-09T00:40:22.360Z,5.80
2019-03-09T00:42:49.954Z,5.80
2019-03-09T00:45:18.026Z,6.00
2019-03-09T00:47:45.633Z,6.00
2019-03-09T00:50:13.698Z,6.00
2019-03-09T00:52:41.491Z,6.30
2019-03-09T00:55:09.969Z,6.30
2019-03-09T00:57:37.655Z,6.20
2019-03-09T01:00:10.628Z,6.10
2019-03-09T01:02:38.211Z,6.20
2019-03-09T01:05:07.173Z,6.30
2019-03-09T01:07:34.766Z,6.30
2019-03-09T01:10:02.328Z,6.30
2019-03-09T01:12:29.953Z,6.40
2019-03-09T01:14:57.545Z,6.50
2019-03-09T01:17:25.357Z,6.50
2019-03-09T01:19:52.942Z,6.40
2019-03-09T01:22:20.508Z,6.30
2019-03-09T01:24:48.386Z,6.40
2019-03-09T01:27:15.911Z,6.50
2019-03-09T01:29:43.468Z,6.60
2019-03-09T01:32:11.003Z,6.60
2019-03-09T01:34:38.903Z,6.70
2019-03-09T01:37:06.463Z,6.70
2019-03-09T01:39:33.974Z,6.70
2019-03-09T01:42:01.571Z,6.70
2019-03-09T01:44:30.263Z,6.80
2019-03-09T01:46:57.813Z,6.70
2019-03-09T01:49:25.417Z,6.70
2019-03-09T01:51:53.148Z,6.70
2019-03-09T01:54:20.780Z,6.70
2019-03-09T01:56:48.750Z,6.90
2019-03-09T01:59:16.323Z,7.00
2019-03-09T02:01:43.834Z,7.10
2019-03-09T02:04:11.369Z,7.20
2019-03-09T02:06:38.880Z,7.40
2019-03-09T02:09:08.492Z,7.40
2019-03-09T02:11:36.062Z,7.40
2019-03-09T02:14:03.528Z,7.30
2019-03-09T02:16:31.529Z,7.30
2019-03-09T02:18:59.117Z,7.40
2019-03-09T02:21:26.730Z,7.50
2019-03-09T02:23:54.360Z,7.40
2019-03-09T02:26:22.349Z,7.60
2019-03-09T02:28:49.901Z,7.60
2019-03-09T02:31:17.428Z,7.60
2019-03-09T02:33:44.953Z,7.70
2019-03-09T02:36:12.834Z,7.80
2019-03-09T02:38:58.763Z,7.80
2019-03-09T02:41:26.296Z,7.80
2019-03-09T02:43:54.065Z,7.90
2019-03-09T02:46:21.896Z,7.80
2019-03-09T02:48:49.492Z,7.90
2019-03-09T02:51:17.012Z,7.90
2019-03-09T02:53:44.544Z,7.90
2019-03-09T02:56:12.137Z,8.00
2019-03-09T02:58:39.667Z,8.00
2019-03-09T03:01:31.835Z,8.00
2019-03-09T03:03:59.423Z,8.00
2019-03-09T03:06:26.991Z,8.00
2019-03-09T03:08:54.641Z,8.00
2019-03-09T03:11:22.268Z,8.00
2019-03-09T03:13:49.831Z,8.00
2019-03-09T03:16:17.469Z,8.00
2019-03-09T03:18:44.949Z,8.00
2019-03-09T03:21:12.535Z,8.00
2019-03-09T03:23:40.107Z,8.00
2019-03-09T03:26:07.612Z,8.00
2019-03-09T03:28:35.462Z,8.00
2019-03-09T03:31:03.473Z,7.90
2019-03-09T03:33:31.033Z,7.90
2019-03-09T03:35:58.567Z,8.00
2019-03-09T03:38:26.143Z,8.00
2019-03-09T03:40:53.813Z,8.00
2019-03-09T03:43:21.341Z,8.10
2019-03-09T03:45:48.954Z,8.10
2019-03-09T03:48:16.574Z,8.10
2019-03-09T03:51:03.607Z,8.10
2019-03-09T03:53:31.712Z,8.00
2019-03-09T03:55:59.227Z,8.10
2019-03-09T03:58:46.188Z,8.10
2019-03-09T04:01:16.595Z,8.30
2019-03-09T04:03:44.117Z,8.20
2019-03-09T04:06:12.189Z,8.10
2019-03-09T04:08:39.932Z,8.20
2019-03-09T04:11:28.803Z,8.20
2019-03-09T04:13:56.342Z,8.10
2019-03-09T04:16:25.147Z,8.00
2019-03-09T04:18:52.989Z,7.90
2019-03-09T04:21:20.651Z,7.80
2019-03-09T04:23:48.914Z,7.60
2019-03-09T04:26:16.415Z,7.60
2019-03-09T04:28:43.941Z,7.50
2019-03-09T04:31:11.428Z,7.60
2019-03-09T04:33:39.264Z,7.60
2019-03-09T04:36:06.787Z,7.60
2019-03-09T04:38:34.367Z,7.50
2019-03-09T04:41:01.935Z,7.60
2019-03-09T04:43:30.160Z,7.60
2019-03-09T04:45:57.647Z,7.60
2019-03-09T04:48:25.223Z,7.50
2019-03-09T04:50:52.822Z,7.50
2019-03-09T04:53:20.380Z,7.50
2019-03-09T04:55:48.353Z,7.60
2019-03-09T04:58:15.944Z,7.40
2019-03-09T05:00:44.263Z,7.30
2019-03-09T05:03:11.878Z,7.30
2019-03-09T05:05:39.422Z,7.30
2019-03-09T05:08:30.206Z,7.40
2019-03-09T05:11:04.782Z,7.40
2019-03-09T05:14:20.273Z,7.30
2019-03-09T05:16:48.079Z,7.30
2019-03-09T05:19:15.562Z,7.20
2019-03-09T05:21:43.140Z,7.10
2019-03-09T05:24:10.665Z,7.00
2019-03-09T05:26:38.155Z,7.00
2019-03-09T05:29:05.734Z,7.00
2019-03-09T05:31:33.284Z,6.90
2019-03-09T05:34:00.775Z,7.00
2019-03-09T05:36:28.379Z,7.00
2019-03-09T05:38:55.980Z,6.90
2019-03-09T05:41:23.544Z,6.90
2019-03-09T05:43:51.084Z,6.90
2019-03-09T05:46:18.667Z,6.90
2019-03-09T05:48:46.202Z,6.80
2019-03-09T05:51:13.724Z,6.80
2019-03-09T05:53:41.298Z,6.80
2019-03-09T05:56:08.819Z,6.80
2019-03-09T05:58:36.335Z,6.80
2019-03-09T06:01:03.925Z,6.90
2019-03-09T06:03:31.409Z,6.70
2019-03-09T06:06:07.779Z,6.80
2019-03-09T06:08:35.323Z,6.80
2019-03-09T06:11:02.867Z,6.70
2019-03-09T06:13:30.522Z,6.70
2019-03-09T06:15:58.138Z,6.70
2019-03-09T06:18:25.591Z,6.70
2019-03-09T06:20:54.535Z,6.70
2019-03-09T06:23:22.067Z,6.70
2019-03-09T06:25:49.545Z,6.70
2019-03-09T06:28:17.060Z,6.80
2019-03-09T06:30:44.562Z,6.80
2019-03-09T06:33:34.197Z,6.80
2019-03-09T06:36:32.970Z,6.80
2019-03-09T06:39:15.100Z,6.80
2019-03-09T06:41:49.821Z,6.90
2019-03-09T06:44:17.603Z,6.90
2019-03-09T06:46:45.072Z,6.90
2019-03-09T06:49:12.591Z,6.90
2019-03-09T06:51:40.130Z,7.00
2019-03-09T06:54:07.622Z,7.00
2019-03-09T06:56:35.146Z,7.00
2019-03-09T06:59:02.793Z,7.00
2019-03-09T07:01:30.304Z,7.00
2019-03-09T07:03:57.931Z,7.00
2019-03-09T07:06:25.423Z,7.00
2019-03-09T07:08:52.928Z,7.10
2019-03-09T07:11:20.443Z,7.10
2019-03-09T07:13:52.854Z,7.20
2019-03-09T07:16:17.451Z,7.20
2019-03-09T07:19:04.969Z,7.40
2019-03-09T07:21:33.867Z,7.30
2019-03-09T07:24:01.444Z,7.50
2019-03-09T07:26:28.935Z,7.50
2019-03-09T07:28:56.675Z,7.60
2019-03-09T07:31:24.254Z,7.70
2019-03-09T07:34:20.443Z,7.70
2019-03-09T07:36:48.027Z,7.80
2019-03-09T07:39:15.607Z,7.90
2019-03-09T07:41:43.079Z,7.90
2019-03-09T07:44:10.624Z,7.90
2019-03-09T07:46:38.414Z,8.00
2019-03-09T07:49:05.878Z,8.00
2019-03-09T07:51:33.361Z,8.00
2019-03-09T07:54:00.969Z,7.90
2019-03-09T07:56:28.495Z,8.00
2019-03-09T07:58:55.988Z,8.00
2019-03-09T08:01:24.161Z,8.10
2019-03-09T08:03:51.729Z,8.20
2019-03-09T08:06:19.212Z,8.30
2019-03-09T08:08:46.675Z,8.40
2019-03-09T08:11:14.204Z,8.40
2019-03-09T08:13:41.714Z,8.50
2019-03-09T08:16:09.195Z,8.60
2019-03-09T08:18:36.680Z,8.60
2019-03-09T08:21:04.179Z,8.60
2019-03-09T08:23:31.685Z,8.60
2019-03-09T08:25:59.276Z,8.70
2019-03-09T08:28:26.811Z,8.70
2019-03-09T08:30:54.302Z,8.70
2019-03-09T08:33:21.911Z,8.70
2019-03-09T08:35:49.675Z,8.90
2019-03-09T08:38:17.161Z,9.00
2019-03-09T08:40:44.696Z,9.10
2019-03-09T08:43:12.523Z,9.30
2019-03-09T08:45:40.449Z,9.40
2019-03-09T08:48:07.957Z,9.50
2019-03-09T08:50:35.595Z,9.40
2019-03-09T08:53:05.977Z,9.70
2019-03-09T08:55:33.609Z,9.90
2019-03-09T08:58:01.250Z,10.00
2019-03-09T09:00:30.896Z,10.10
2019-03-09T09:02:58.477Z,10.20
2019-03-09T09:05:25.971Z,10.40
2019-03-09T09:07:53.805Z,10.40
2019-03-09T09:10:21.381Z,10.30
2019-03-09T09:12:48.974Z,10.50
2019-03-09T09:15:17.103Z,10.40
2019-03-09T09:17:44.658Z,10.60
2019-03-09T09:20:14.364Z,10.60
2019-03-09T09:22:41.915Z,10.60
2019-03-09T09:25:09.547Z,10.90
2019-03-09T09:27:37.083Z,10.90
2019-03-09T09:30:06.726Z,11.10
2019-03-09T09:32:34.239Z,11.10
2019-03-09T09:35:01.748Z,11.10
2019-03-09T09:37:29.359Z,11.20
2019-03-09T09:39:57.174Z,11.30
2019-03-09T09:42:24.713Z,11.20
2019-03-09T09:44:52.266Z,11.30
2019-03-09T09:47:19.823Z,11.10
2019-03-09T09:49:47.894Z,10.90
2019-03-09T09:52:15.419Z,10.90
2019-03-09T09:54:42.968Z,10.70
2019-03-09T09:57:10.461Z,10.80
2019-03-09T09:59:38.153Z,10.70
2019-03-09T10:02:06.034Z,10.60
2019-03-09T10:04:33.559Z,10.60
2019-03-09T10:07:01.271Z,10.90
2019-03-09T10:09:28.811Z,10.90
2019-03-09T10:11:56.568Z,10.80
2019-03-09T10:14:24.327Z,10.80
2019-03-09T10:16:51.811Z,10.80
2019-03-09T10:19:20.748Z,10.70
2019-03-09T10:21:48.191Z,10.80
2019-03-09T10:24:15.647Z,10.80
2019-03-09T10:26:43.138Z,10.80
2019-03-09T10:29:10.687Z,10.90
2019-03-09T10:31:38.161Z,10.90
2019-03-09T10:34:05.618Z,10.90
2019-03-09T10:36:33.120Z,10.80
2019-03-09T10:39:00.719Z,10.80
2019-03-09T10:41:28.232Z,10.80
2019-03-09T10:43:55.721Z,10.80
2019-03-09T10:46:23.178Z,10.80
2019-03-09T10:48:50.721Z,10.80
2019-03-09T10:51:18.214Z,10.80
2019-03-09T10:53:45.704Z,10.80
2019-03-09T10:56:14.275Z,10.80
2019-03-09T10:58:41.763Z,11.00
2019-03-09T11:01:09.479Z,11.00
2019-03-09T11:03:37.208Z,11.10
2019-03-09T11:06:06.006Z,11.30
2019-03-09T11:08:33.423Z,11.20
2019-03-09T11:11:00.972Z,11.20
2019-03-09T11:13:28.552Z,11.40
2019-03-09T11:15:56.036Z,11.40
2019-03-09T11:18:23.507Z,11.40
2019-03-09T11:20:51.358Z,11.30
2019-03-09T11:23:18.815Z,11.40
2019-03-09T11:25:46.291Z,11.50
2019-03-09T11:28:13.775Z,11.50
2019-03-09T11:30:41.263Z,11.50
2019-03-09T11:33:08.783Z,11.30
2019-03-09T11:35:36.706Z,11.20
2019-03-09T11:38:04.152Z,11.50
2019-03-09T11:40:31.851Z,11.60
2019-03-09T11:42:59.296Z,11.80
2019-03-09T11:45:26.750Z,11.70
2019-03-09T11:47:54.230Z,11.90
2019-03-09T11:50:21.719Z,11.60
2019-03-09T11:52:49.191Z,11.70
2019-03-09T11:55:16.799Z,11.70
2019-03-09T11:57:44.279Z,11.90
2019-03-09T12:00:13.844Z,11.90
2019-03-09T12:02:41.314Z,11.70
2019-03-09T12:05:08.978Z,11.60
2019-03-09T12:07:36.419Z,11.50
2019-03-09T12:10:04.659Z,11.50
2019-03-09T12:12:32.170Z,11.50
2019-03-09T12:14:59.624Z,11.50
2019-03-09T12:17:27.080Z,11.40
2019-03-09T12:19:54.847Z,11.40
2019-03-09T12:22:22.338Z,11.40
2019-03-09T12:24:52.033Z,11.40
2019-03-09T12:27:19.527Z,11.50
2019-03-09T12:29:46.981Z,11.50
2019-03-09T12:32:14.463Z,11.50
2019-03-09T12:34:41.934Z,11.30
2019-03-09T12:37:09.387Z,11.40
2019-03-09T12:39:36.940Z,11.50
2019-03-09T12:42:04.439Z,11.40
2019-03-09T12:44:31.974Z,11.30
2019-03-09T12:46:59.484Z,11.30
2019-03-09T12:49:26.975Z,11.40
2019-03-09T12:51:54.439Z,11.30
2019-03-09T12:54:21.997Z,11.30
2019-03-09T12:56:49.452Z,11.30
2019-03-09T12:59:16.912Z,11.30
2019-03-09T13:01:44.393Z,11.20
2019-03-09T13:04:11.909Z,11.10
2019-03-09T13:06:39.334Z,11.10
2019-03-09T13:09:07.205Z,11.10
2019-03-09T13:11:34.723Z,11.10
2019-03-09T13:14:02.305Z,11.10
2019-03-09T13:16:30.005Z,11.10
2019-03-09T13:18:57.510Z,11.00
2019-03-09T13:21:25.197Z,11.00
2019-03-09T13:23:52.653Z,11.00
2019-03-09T13:26:20.099Z,11.00
2019-03-09T13:28:47.667Z,10.80
2019-03-09T13:31:15.126Z,10.70
2019-03-09T13:33:42.695Z,10.60
2019-03-09T13:36:10.171Z,10.50
2019-03-09T13:38:37.694Z,10.40
2019-03-09T13:41:05.214Z,10.40
2019-03-09T13:43:33.323Z,10.40
2019-03-09T13:46:00.771Z,10.40
2019-03-09T13:48:28.330Z,10.40
2019-03-09T13:50:55.779Z,10.50
2019-03-09T13:53:23.235Z,10.50
2019-03-09T13:55:52.106Z,10.70
2019-03-09T13:58:20.003Z,10.80
2019-03-09T14:00:47.606Z,11.20
2019-03-09T14:03:15.110Z,11.20
2019-03-09T14:05:42.596Z,11.20
2019-03-09T14:08:10.131Z,10.90
2019-03-09T14:10:37.635Z,11.30
2019-03-09T14:13:05.413Z,11.20
2019-03-09T14:15:32.967Z,11.30
2019-03-09T14:18:00.416Z,11.20
2019-03-09T14:20:27.902Z,10.90
2019-03-09T14:22:55.372Z,10.60
2019-03-09T14:25:22.822Z,10.60
2019-03-09T14:27:50.311Z,10.60
2019-03-09T14:30:17.838Z,11.20
2019-03-09T14:32:45.430Z,11.90
2019-03-09T14:35:13.459Z,12.00
2019-03-09T14:37:40.943Z,12.00
2019-03-09T14:40:10.561Z,11.80
2019-03-09T14:42:38.053Z,12.10
2019-03-09T14:45:08.209Z,12.70
2019-03-09T14:47:35.771Z,12.50
2019-03-09T14:50:03.983Z,12.50
2019-03-09T14:52:31.515Z,13.10
2019-03-09T14:54:59.061Z,12.70
2019-03-09T14:57:26.599Z,12.80
2019-03-09T14:59:54.159Z,12.20
2019-03-09T15:02:21.660Z,12.40
2019-03-09T15:04:49.491Z,11.60
2019-03-09T15:07:16.990Z,11.50
2019-03-09T15:09:44.519Z,11.60
2019-03-09T15:12:12.016Z,11.50
2019-03-09T15:14:39.525Z,11.30
2019-03-09T15:17:07.221Z,11.10
2019-03-09T15:19:35.065Z,11.20
2019-03-09T15:22:02.511Z,11.20
2019-03-09T15:24:30.276Z,11.10
2019-03-09T15:26:57.733Z,11.00
2019-03-09T15:29:25.261Z,10.80
2019-03-09T15:31:52.724Z,10.80
2019-03-09T15:34:20.195Z,10.60
2019-03-09T15:36:47.712Z,10.60
2019-03-09T15:39:15.650Z,10.70
2019-03-09T15:41:43.147Z,10.60
2019-03-09T15:44:10.604Z,10.50
2019-03-09T15:46:38.119Z,10.60
2019-03-09T15:49:05.618Z,10.70
2019-03-09T15:51:33.133Z,10.80
2019-03-09T15:54:00.664Z,10.80
2019-03-09T15:56:28.546Z,10.70
2019-03-09T15:58:56.088Z,10.60
2019-03-09T16:01:23.656Z,10.40
2019-03-09T16:03:51.140Z,10.30
2019-03-09T16:06:18.717Z,10.10
2019-03-09T16:08:46.170Z,10.00
2019-03-09T16:11:13.723Z,9.90
2019-03-09T16:13:41.190Z,10.00
2019-03-09T16:16:08.663Z,10.00
2019-03-09T16:18:36.148Z,10.00
2019-03-09T16:21:03.632Z,10.10
2019-03-09T16:23:31.147Z,10.00
2019-03-09T16:25:58.617Z,10.10
2019-03-09T16:28:26.123Z,10.10
2019-03-09T16:30:53.606Z,10.10
2019-03-09T16:33:21.120Z,10.10
2019-03-09T16:35:48.609Z,10.20
2019-03-09T16:38:16.077Z,10.20
2019-03-09T16:40:43.551Z,10.30
2019-03-09T16:43:11.097Z,10.40
2019-03-09T16:45:38.550Z,10.50
2019-03-09T16:48:06.048Z,10.60
2019-03-09T16:50:33.553Z,10.60
2019-03-09T16:53:01.032Z,10.70
2019-03-09T16:55:28.470Z,10.70
2019-03-09T16:57:55.966Z,10.70
2019-03-09T17:00:23.418Z,10.70
2019-03-09T17:02:51.023Z,10.70
2019-03-09T17:05:18.526Z,10.80
2019-03-09T17:07:45.982Z,10.70
2019-03-09T17:10:13.905Z,10.80
2019-03-09T17:12:41.351Z,10.80
2019-03-09T17:15:09.911Z,10.90
2019-03-09T17:17:37.439Z,11.00
2019-03-09T17:20:06.308Z,11.10
2019-03-09T17:22:33.821Z,11.10
2019-03-09T17:25:01.316Z,11.10
2019-03-09T17:27:28.780Z,11.10
2019-03-09T17:29:56.225Z,11.10
2019-03-09T17:32:25.904Z,11.20
2019-03-09T17:34:53.074Z,11.20
2019-03-09T17:37:20.536Z,11.20
2019-03-09T17:39:48.025Z,11.20
2019-03-09T17:42:15.531Z,11.20
2019-03-09T17:44:43.008Z,11.20
2019-03-09T17:47:10.513Z,11.20
2019-03-09T17:49:37.961Z,11.20
2019-03-09T17:52:05.512Z,11.20
2019-03-09T17:54:33.018Z,11.30
2019-03-09T17:57:00.523Z,11.30
2019-03-09T17:59:28.018Z,11.20
2019-03-09T18:01:55.458Z,11.20
2019-03-09T18:04:23.221Z,11.20
2019-03-09T18:06:50.677Z,11.20
2019-03-09T18:09:19.348Z,11.30
2019-03-09T18:11:46.829Z,11.30
2019-03-09T18:14:14.311Z,11.30
2019-03-09T18:16:41.768Z,11.30
2019-03-09T18:19:09.296Z,11.40
2019-03-09T18:21:36.820Z,11.30
2019-03-09T18:24:04.339Z,11.20
2019-03-09T18:26:31.796Z,11.30
2019-03-09T18:28:59.255Z,11.30
2019-03-09T18:31:27.297Z,11.40
2019-03-09T18:33:54.774Z,11.30
2019-03-09T18:36:23.215Z,11.30
2019-03-09T18:38:50.717Z,11.30
2019-03-09T18:41:18.235Z,11.30
2019-03-09T18:43:45.737Z,11.30
2019-03-09T18:46:13.874Z,11.30
2019-03-09T18:48:41.507Z,11.40
2019-03-09T18:51:09.011Z,11.30
2019-03-09T18:53:36.492Z,11.20
2019-03-09T18:56:03.956Z,11.30
2019-03-09T18:58:31.505Z,11.20
2019-03-09T19:00:58.940Z,11.30
2019-03-09T19:03:26.427Z,11.30
2019-03-09T19:05:53.933Z,11.30
2019-03-09T19:08:21.408Z,11.30
2019-03-09T19:10:48.939Z,11.30
2019-03-09T19:13:16.759Z,11.40
2019-03-09T19:15:44.737Z,11.50
2019-03-09T19:18:12.564Z,11.40
2019-03-09T19:20:40.072Z,11.20
2019-03-09T19:23:07.656Z,11.30
2019-03-09T19:25:35.171Z,11.40
2019-03-09T19:28:02.718Z,11.50
2019-03-09T19:30:30.312Z,11.40
2019-03-09T19:33:00.658Z,11.40
2019-03-09T19:35:27.136Z,11.40
2019-03-09T19:37:54.651Z,11.30
2019-03-09T19:40:23.006Z,11.30
2019-03-09T19:42:50.527Z,11.30
2019-03-09T19:45:18.155Z,11.30
2019-03-09T19:47:45.705Z,11.20
2019-03-09T19:50:15.105Z,11.10
2019-03-09T19:52:44.201Z,10.80
2019-03-09T19:55:12.047Z,10.40
2019-03-09T19:57:39.635Z,10.10
2019-03-09T20:00:15.418Z,9.50
2019-03-09T20:02:43.063Z,9.00
2019-03-09T20:05:11.683Z,8.90
2019-03-09T20:07:39.500Z,8.90
2019-03-09T20:10:08.803Z,8.80
2019-03-09T20:12:36.403Z,8.70
2019-03-09T20:15:05.108Z,8.70
2019-03-09T20:17:33.518Z,8.70
2019-03-09T20:20:01.094Z,8.60
2019-03-09T20:22:29.404Z,8.60
2019-03-09T20:24:56.909Z,8.60
2019-03-09T20:27:24.478Z,8.50
2019-03-09T20:29:52.115Z,8.50
2019-03-09T20:32:20.123Z,8.40
2019-03-09T20:34:47.765Z,8.40
2019-03-09T20:37:15.246Z,8.40
2019-03-09T20:39:42.885Z,8.40
2019-03-09T20:42:10.510Z,8.30
2019-03-09T20:44:38.319Z,8.30
2019-03-09T20:47:05.936Z,8.20
2019-03-09T20:49:33.431Z,8.30
2019-03-09T20:52:01.277Z,8.20
2019-03-09T20:54:29.274Z,8.20
2019-03-09T20:56:57.127Z,8.20
2019-03-09T20:59:24.671Z,8.20
2019-03-09T21:01:52.220Z,8.30
2019-03-09T21:04:19.773Z,8.20
2019-03-09T21:06:48.476Z,8.30
2019-03-09T21:09:16.320Z,8.20
2019-03-09T21:11:44.169Z,8.20
2019-03-09T21:14:11.718Z,8.20
2019-03-09T21:16:39.657Z,8.10
2019-03-09T21:19:07.215Z,8.10
2019-03-09T21:21:34.796Z,8.00
2019-03-09T21:24:02.315Z,7.90
2019-03-09T21:26:29.809Z,7.90
2019-03-09T21:28:57.307Z,7.80
2019-03-09T21:31:24.837Z,7.80
2019-03-09T21:33:52.452Z,7.80
2019-03-09T21:36:19.971Z,7.80
2019-03-09T21:38:47.509Z,7.80
2019-03-09T21:41:15.328Z,7.80
2019-03-09T21:43:42.998Z,7.80
2019-03-09T21:46:10.527Z,7.80
2019-03-09T21:48:38.337Z,7.80
2019-03-09T21:51:05.905Z,7.80
2019-03-09T21:53:33.405Z,7.80
2019-03-09T21:56:00.963Z,7.80
2019-03-09T21:58:28.482Z,7.80
2019-03-09T22:00:56.007Z,7.80
2019-03-09T22:03:23.488Z,7.70
2019-03-09T22:05:51.132Z,7.80
2019-03-09T22:08:18.652Z,7.80
2019-03-09T22:10:46.134Z,7.70
2019-03-09T22:13:13.692Z,7.70
2019-03-09T22:15:41.160Z,7.70
2019-03-09T22:18:08.702Z,7.80
2019-03-09T22:20:36.523Z,7.80
2019-03-09T22:23:04.032Z,7.80
2019-03-09T22:25:31.535Z,7.80
2019-03-09T22:27:59.105Z,7.80
2019-03-09T22:30:26.690Z,7.80
2019-03-09T22:32:54.232Z,7.80
2019-03-09T22:35:21.973Z,7.80
2019-03-09T22:37:49.627Z,7.90
2019-03-09T22:40:17.144Z,8.00
2019-03-09T22:45:41.715Z,9.00
2019-03-09T22:48:09.231Z,9.30
2019-03-09T22:50:37.015Z,9.70
2019-03-09T22:53:04.484Z,10.00
2019-03-09T22:55:32.012Z,10.00
2019-03-09T22:57:59.558Z,10.10
2019-03-09T23:00:27.028Z,10.10
2019-03-09T23:02:54.555Z,10.30
2019-03-09T23:05:22.356Z,10.20
2019-03-09T23:07:49.869Z,10.20
2019-03-09T23:10:17.372Z,10.30
2019-03-09T23:12:44.899Z,10.30
2019-03-09T23:15:13.335Z,10.30
2019-03-09T23:17:40.827Z,10.30
2019-03-09T23:20:09.827Z,10.30
2019-03-09T23:22:37.352Z,10.40
2019-03-09T23:25:05.713Z,10.40
2019-03-09T23:27:33.916Z,10.30
2019-03-09T23:30:01.404Z,10.30
2019-03-09T23:32:28.894Z,10.40
2019-03-09T23:34:56.420Z,10.20
2019-03-09T23:37:24.196Z,10.20
2019-03-09T23:39:52.004Z,10.30
2019-03-09T23:42:19.491Z,10.20
2019-03-09T23:44:47.006Z,10.30
2019-03-09T23:47:14.957Z,10.30
2019-03-09T23:49:42.519Z,10.30
2019-03-09T23:52:10.010Z,10.20
2019-03-09T23:54:37.473Z,10.30
2019-03-09T23:57:04.971Z,10.30
2019-03-09T23:59:32.522Z,10.20
